Aeroporto :
LOGIN :

Iscrizione | Disclaimer

   EN    FR    IT 

 










Sommario :    VFR   VFR Marginale   IFR   IFR Intensivo   IFR Molto Intensivo
Visibilità : 
Base nubi : 
>= 8 km
>= 3000ft
5 / 8 km
1000 / 3000 ft
1500m / 5 km
500 / 1000 ft
800 / 1500m
200 / 500 ft
< 800m
< 200 ft
Simboli :   Temporali  Nebbia  Neve Forte  Precipitazioni Forti  Vento > 20 kt
SIGMETs :   Varie  Temporali  Ghiacco  Turbolenza  Onda orograficha  Ceneri Vulcaniche






- Altitudine del aeroporto : 1036 ft
- Codice IATA : CLJ


LRCL - Cluj-Napoca International

ULTIMO METAR :
  • 240900Z 21010KT 9999 FEW020 BKN035 16/09 Q1002

METARs OBSOLETI :
  • 240830Z VRB03KT 9999 FEW020 BKN031 BKN051 15/09 Q1002
  • 240800Z 27004KT 190V360 9999 FEW025 SCT033 15/09 Q1002
  • 240730Z 17009KT 9999 FEW027 BKN047 16/09 Q1002
  • 240700Z 20006KT 170V250 9999 BKN047 14/09 Q1002
  • 240630Z 12004KT 080V150 9999 FEW054 13/09 Q1002
  • 240600Z 10006KT CAVOK 12/09 Q1002
  • 240530Z 07004KT 030V110 9999 FEW048 10/08 Q1002
  • 240500Z 06005KT 9999 FEW050 10/08 Q1003
  • 240430Z 05005KT CAVOK 09/07 Q1003

TAF TAF LRCL
Valido dal 24 a 09 ore il 24 a 18 ore UTC


240800Z 2409/2418 VRB04KT CAVOK
BECMG 2411/2413 27010KT
PROB30
TEMPO 2412/2415 5000 -TSRA SCT035CB
BECMG 2414/2416 VRB04KT



MetMap, La meteo Aeronautica in un colpo d'occhio ! - Copyright ORBIFLY Dicembre 2007 - Disclaimer

ORBIFLY MET'MAP TEAM :

Programmazione e sviluppo : Alexandra Zaïnal
Concezione : Baudouin d'Aumeries
Supporto tecnico e logistico : Manuel Goepfert
Aiuto : Marc-Olivier Méhu
Aiuto per la traduzione : Arnaldo La Scala




FONTI E CREDITI :

   NOAA